Terminal Aerodrome Forecast
Issued by NWS

Home | Current Version | Previous Version | Text Only | Print | Product List | Glossary Off
Versions: 1 2 3 4 5 6 7 8 9 10 11 12 13 14 15 16 17 18 19

000
FTUS43 KGRB 300500
TAFATW
TAF
KATW 300538Z 3006/3106 18007KT 6SM BR VCTS SCT015CB SCT030 OVC120
     FM300700 18005KT 4SM -SHRA BR SCT006 OVC015
      TEMPO 3007/3011 1 1/2SM TSRA BR BKN006CB
     FM301100 20005KT 3SM -SHRA BR OVC005
     FM301400 24006KT 5SM -SHRA BR OVC011
     FM301800 25010KT P6SM VCSH BKN025 BKN070=

USA.gov is the U.S. government's official web portal to all federal, state and local government web resources and services.